메인 페이지
METAR-TAF:

METAR-TAF

공항 :

카옌로 샹부 공항

카옌, 프랑스령 기아나

위도: 04-50N, 경도: 052-22W, 고도: 105m

현재 날씨관측

예보는 17분 전, 20:00시(UTC)에 발표되었습니다.
북북동9kt풍과 동북동풍을 오가는
온도 31°C
습도 66%
기압 1010 hPa
시정 10km 이상
고도 2500ft 상공 구름 조금

METAR: SOCA 182000Z AUTO 03009KT 010V070 9999 FEW025 31/24 Q1010 NOSIG

시각: 17:17 (20:17 UTC)

예보

예보는 4 시간 17분 전, 16:00시(UTC)에 발표되었습니다.
예보 대상 시간: 18일 18시부터 19일 18시까지 (UTC)
동북동10kt
시정 10km 이상
고도 4000ft 상공 구름 조금
전환 중
18일 21시부터 18일 23시까지 (UTC)
여러 방향의 바람 2kt
전환 중
19일 13시부터 19일 15시까지 (UTC)
동북동10kt

TAF: SOCA 181600Z 1818/1918 07010KT 9999 FEW040 BECMG 1821/1823 VRB02KT BECMG 1913/1915 07010KT

4,000개 이상의 공항 관측 자료 및 예보 (METAR 및 TAF 보고).

지도상에서 검색 가능한 기상관측소가 노란 점과 빨간 점으로 표시되어 있습니다.

기상관측소 명을 보려면 표시 위로 마우스를 이동하세요.

날씨 관측과 예보를 보려면 클릭하세요.

지도 변경 : 확대하려면 엑스 표시가 있는 녹색 버튼, 축소하려면 빼기 표시가 있는 녹색 버튼, 다음 페이지의 지도를 보려면 녹색 화살표를 클릭하세요.


METAR-TAF: